sensor_id;sensor_type;location;lat;lon;timestamp;temperature;humidity
47600;DHT22;33323;52.124;6.018;2023-04-25T00:01:41;6.50;99.90
47600;DHT22;33323;52.124;6.018;2023-04-25T00:04:08;6.50;99.90
47600;DHT22;33323;52.124;6.018;2023-04-25T00:06:35;6.50;99.90
47600;DHT22;33323;52.124;6.018;2023-04-25T00:09:04;6.40;99.90
47600;DHT22;33323;52.124;6.018;2023-04-25T00:11:34;6.50;99.90
47600;DHT22;33323;52.124;6.018;2023-04-25T00:14:01;6.40;99.90
47600;DHT22;33323;52.124;6.018;2023-04-25T00:16:29;6.40;99.90
47600;DHT22;33323;52.124;6.018;2023-04-25T00:19:01;6.30;99.90
47600;DHT22;33323;52.124;6.018;2023-04-25T00:21:29;6.30;99.90
47600;DHT22;33323;52.124;6.018;2023-04-25T00:23:58;6.30;99.90
47600;DHT22;33323;52.124;6.018;2023-04-25T00:26:27;6.10;99.90
47600;DHT22;33323;52.124;6.018;2023-04-25T00:28:54;6.00;99.90
47600;DHT22;33323;52.124;6.018;2023-04-25T00:31:21;6.10;99.90
47600;DHT22;33323;52.124;6.018;2023-04-25T00:33:48;6.10;99.90
47600;DHT22;33323;52.124;6.018;2023-04-25T00:36:15;6.00;99.90
47600;DHT22;33323;52.124;6.018;2023-04-25T00:38:43;6.00;99.90
47600;DHT22;33323;52.124;6.018;2023-04-25T00:41:10;6.00;99.90
47600;DHT22;33323;52.124;6.018;2023-04-25T00:43:39;6.00;99.90
47600;DHT22;33323;52.124;6.018;2023-04-25T00:46:07;5.90;99.90
47600;DHT22;33323;52.124;6.018;2023-04-25T00:48:34;5.90;99.90
47600;DHT22;33323;52.124;6.018;2023-04-25T00:51:01;5.80;99.90
47600;DHT22;33323;52.124;6.018;2023-04-25T00:53:30;5.80;99.90
47600;DHT22;33323;52.124;6.018;2023-04-25T00:55:58;5.80;99.90
47600;DHT22;33323;52.124;6.018;2023-04-25T00:58:25;5.60;99.90
47600;DHT22;33323;52.124;6.018;2023-04-25T01:00:52;5.60;99.90
47600;DHT22;33323;52.124;6.018;2023-04-25T01:03:20;5.40;99.90
47600;DHT22;33323;52.124;6.018;2023-04-25T01:05:48;5.30;99.90
47600;DHT22;33323;52.124;6.018;2023-04-25T01:08:15;5.10;99.90
47600;DHT22;33323;52.124;6.018;2023-04-25T01:10:42;5.10;99.90
47600;DHT22;33323;52.124;6.018;2023-04-25T01:13:09;5.10;99.90
47600;DHT22;33323;52.124;6.018;2023-04-25T01:15:36;5.10;99.90
47600;DHT22;33323;52.124;6.018;2023-04-25T01:18:05;5.10;99.90
47600;DHT22;33323;52.124;6.018;2023-04-25T01:20:33;5.20;99.90
47600;DHT22;33323;52.124;6.018;2023-04-25T01:23:01;5.20;99.90
47600;DHT22;33323;52.124;6.018;2023-04-25T01:25:32;5.20;99.90
47600;DHT22;33323;52.124;6.018;2023-04-25T01:28:00;5.20;99.90
47600;DHT22;33323;52.124;6.018;2023-04-25T01:30:29;5.10;99.90
47600;DHT22;33323;52.124;6.018;2023-04-25T01:32:56;5.10;99.90
47600;DHT22;33323;52.124;6.018;2023-04-25T01:35:24;5.20;99.90
47600;DHT22;33323;52.124;6.018;2023-04-25T01:37:54;5.20;99.90
47600;DHT22;33323;52.124;6.018;2023-04-25T01:40:22;5.10;99.90
47600;DHT22;33323;52.124;6.018;2023-04-25T01:42:50;5.10;99.90
47600;DHT22;33323;52.124;6.018;2023-04-25T01:45:18;5.10;99.90
47600;DHT22;33323;52.124;6.018;2023-04-25T01:47:46;5.10;99.90
47600;DHT22;33323;52.124;6.018;2023-04-25T01:50:18;5.00;99.90
47600;DHT22;33323;52.124;6.018;2023-04-25T01:52:47;4.90;99.90
47600;DHT22;33323;52.124;6.018;2023-04-25T01:55:14;4.90;99.90
47600;DHT22;33323;52.124;6.018;2023-04-25T01:57:58;5.00;99.90
47600;DHT22;33323;52.124;6.018;2023-04-25T02:00:43;5.00;99.90
47600;DHT22;33323;52.124;6.018;2023-04-25T02:03:11;5.00;99.90
47600;DHT22;33323;52.124;6.018;2023-04-25T02:05:39;4.90;99.90
47600;DHT22;33323;52.124;6.018;2023-04-25T02:08:09;5.00;99.90
47600;DHT22;33323;52.124;6.018;2023-04-25T02:10:37;4.90;99.90
47600;DHT22;33323;52.124;6.018;2023-04-25T02:13:16;5.00;99.90
47600;DHT22;33323;52.124;6.018;2023-04-25T02:16:04;4.90;99.90
47600;DHT22;33323;52.124;6.018;2023-04-25T02:18:31;5.00;99.90
47600;DHT22;33323;52.124;6.018;2023-04-25T02:21:01;5.00;99.90
47600;DHT22;33323;52.124;6.018;2023-04-25T02:23:29;5.00;99.90
47600;DHT22;33323;52.124;6.018;2023-04-25T02:25:59;5.00;99.90
47600;DHT22;33323;52.124;6.018;2023-04-25T02:28:26;5.00;99.90
47600;DHT22;33323;52.124;6.018;2023-04-25T02:30:53;4.90;99.90
47600;DHT22;33323;52.124;6.018;2023-04-25T02:33:20;4.90;99.90
47600;DHT22;33323;52.124;6.018;2023-04-25T02:35:47;4.90;99.90
47600;DHT22;33323;52.124;6.018;2023-04-25T02:38:14;4.80;99.90
47600;DHT22;33323;52.124;6.018;2023-04-25T02:40:41;4.70;99.90
47600;DHT22;33323;52.124;6.018;2023-04-25T02:43:08;4.70;99.90
47600;DHT22;33323;52.124;6.018;2023-04-25T02:45:35;4.50;99.90
47600;DHT22;33323;52.124;6.018;2023-04-25T02:48:03;4.50;99.90
47600;DHT22;33323;52.124;6.018;2023-04-25T02:50:31;4.60;99.90
47600;DHT22;33323;52.124;6.018;2023-04-25T02:52:58;4.60;99.90
47600;DHT22;33323;52.124;6.018;2023-04-25T02:55:32;4.60;99.90
47600;DHT22;33323;52.124;6.018;2023-04-25T02:58:01;4.50;99.90
47600;DHT22;33323;52.124;6.018;2023-04-25T03:00:41;4.50;99.90
47600;DHT22;33323;52.124;6.018;2023-04-25T03:03:08;4.70;99.90
47600;DHT22;33323;52.124;6.018;2023-04-25T03:05:36;4.60;99.90
47600;DHT22;33323;52.124;6.018;2023-04-25T03:08:03;4.70;99.90
47600;DHT22;33323;52.124;6.018;2023-04-25T03:10:32;4.60;99.90
47600;DHT22;33323;52.124;6.018;2023-04-25T03:13:03;4.60;99.90
47600;DHT22;33323;52.124;6.018;2023-04-25T03:15:30;4.60;99.90
47600;DHT22;33323;52.124;6.018;2023-04-25T03:17:57;4.50;99.90
47600;DHT22;33323;52.124;6.018;2023-04-25T03:20:24;4.50;99.90
47600;DHT22;33323;52.124;6.018;2023-04-25T03:22:51;4.30;99.90
47600;DHT22;33323;52.124;6.018;2023-04-25T03:25:19;4.40;99.90
47600;DHT22;33323;52.124;6.018;2023-04-25T03:27:46;4.40;99.90
47600;DHT22;33323;52.124;6.018;2023-04-25T03:30:13;4.30;99.90
47600;DHT22;33323;52.124;6.018;2023-04-25T03:32:42;4.30;99.90
47600;DHT22;33323;52.124;6.018;2023-04-25T03:35:09;4.20;99.90
47600;DHT22;33323;52.124;6.018;2023-04-25T03:37:36;4.10;99.90
47600;DHT22;33323;52.124;6.018;2023-04-25T03:40:03;4.10;99.90
47600;DHT22;33323;52.124;6.018;2023-04-25T03:42:51;4.10;99.90
47600;DHT22;33323;52.124;6.018;2023-04-25T03:45:18;4.20;99.90
47600;DHT22;33323;52.124;6.018;2023-04-25T03:47:45;4.10;99.90
47600;DHT22;33323;52.124;6.018;2023-04-25T03:50:12;4.10;99.90
47600;DHT22;33323;52.124;6.018;2023-04-25T03:52:39;4.10;99.90
47600;DHT22;33323;52.124;6.018;2023-04-25T03:55:06;4.00;99.90
47600;DHT22;33323;52.124;6.018;2023-04-25T03:57:34;4.10;99.90
47600;DHT22;33323;52.124;6.018;2023-04-25T04:00:01;4.10;99.90
47600;DHT22;33323;52.124;6.018;2023-04-25T04:02:38;4.20;99.90
47600;DHT22;33323;52.124;6.018;2023-04-25T04:05:11;4.20;99.90
47600;DHT22;33323;52.124;6.018;2023-04-25T04:07:44;4.20;99.90
47600;DHT22;33323;52.124;6.018;2023-04-25T04:10:12;4.30;99.90
47600;DHT22;33323;52.124;6.018;2023-04-25T04:12:40;4.40;99.90
47600;DHT22;33323;52.124;6.018;2023-04-25T04:15:07;4.40;99.90
47600;DHT22;33323;52.124;6.018;2023-04-25T04:17:35;4.50;99.90
47600;DHT22;33323;52.124;6.018;2023-04-25T04:20:02;4.40;99.90
47600;DHT22;33323;52.124;6.018;2023-04-25T04:22:31;4.20;99.90
47600;DHT22;33323;52.124;6.018;2023-04-25T04:25:04;4.20;99.90
47600;DHT22;33323;52.124;6.018;2023-04-25T04:27:55;4.30;99.90
47600;DHT22;33323;52.124;6.018;2023-04-25T04:30:28;4.30;99.90
47600;DHT22;33323;52.124;6.018;2023-04-25T04:32:58;4.40;99.90
47600;DHT22;33323;52.124;6.018;2023-04-25T04:35:25;4.40;99.90
47600;DHT22;33323;52.124;6.018;2023-04-25T04:37:53;4.50;99.90
47600;DHT22;33323;52.124;6.018;2023-04-25T04:40:24;4.50;99.90
47600;DHT22;33323;52.124;6.018;2023-04-25T04:43:05;4.60;99.90
47600;DHT22;33323;52.124;6.018;2023-04-25T04:45:42;4.60;99.90
47600;DHT22;33323;52.124;6.018;2023-04-25T04:48:28;4.60;99.90
47600;DHT22;33323;52.124;6.018;2023-04-25T04:51:17;4.60;99.90
47600;DHT22;33323;52.124;6.018;2023-04-25T04:53:56;4.70;99.90
47600;DHT22;33323;52.124;6.018;2023-04-25T04:56:43;4.80;99.90
47600;DHT22;33323;52.124;6.018;2023-04-25T04:59:21;4.90;99.90
47600;DHT22;33323;52.124;6.018;2023-04-25T05:02:05;4.90;99.90
47600;DHT22;33323;52.124;6.018;2023-04-25T05:04:51;5.00;99.90
47600;DHT22;33323;52.124;6.018;2023-04-25T05:07:26;5.00;99.90
47600;DHT22;33323;52.124;6.018;2023-04-25T05:10:08;5.00;99.90
47600;DHT22;33323;52.124;6.018;2023-04-25T05:12:56;5.00;99.90
47600;DHT22;33323;52.124;6.018;2023-04-25T05:15:59;4.90;99.90
47600;DHT22;33323;52.124;6.018;2023-04-25T05:18:48;4.90;99.90
47600;DHT22;33323;52.124;6.018;2023-04-25T05:21:35;4.90;99.90
47600;DHT22;33323;52.124;6.018;2023-04-25T05:24:09;5.00;99.90
47600;DHT22;33323;52.124;6.018;2023-04-25T05:27:02;5.00;99.90
47600;DHT22;33323;52.124;6.018;2023-04-25T05:29:48;5.00;99.90
47600;DHT22;33323;52.124;6.018;2023-04-25T05:32:28;4.80;99.90
47600;DHT22;33323;52.124;6.018;2023-04-25T05:34:56;4.80;99.90
47600;DHT22;33323;52.124;6.018;2023-04-25T05:37:31;4.60;99.90
47600;DHT22;33323;52.124;6.018;2023-04-25T05:40:09;4.70;99.90
47600;DHT22;33323;52.124;6.018;2023-04-25T05:42:55;4.70;99.90
47600;DHT22;33323;52.124;6.018;2023-04-25T05:45:42;4.70;99.90
47600;DHT22;33323;52.124;6.018;2023-04-25T05:48:31;4.70;99.90
47600;DHT22;33323;52.124;6.018;2023-04-25T05:51:09;4.80;99.90
47600;DHT22;33323;52.124;6.018;2023-04-25T05:53:46;4.80;99.90
47600;DHT22;33323;52.124;6.018;2023-04-25T05:56:14;4.90;99.90
47600;DHT22;33323;52.124;6.018;2023-04-25T05:58:42;4.90;99.90
47600;DHT22;33323;52.124;6.018;2023-04-25T06:01:12;5.00;99.90
47600;DHT22;33323;52.124;6.018;2023-04-25T06:03:39;5.10;99.90
47600;DHT22;33323;52.124;6.018;2023-04-25T06:06:11;5.20;99.90
47600;DHT22;33323;52.124;6.018;2023-04-25T06:08:41;5.20;99.90
47600;DHT22;33323;52.124;6.018;2023-04-25T06:11:11;5.30;99.90
47600;DHT22;33323;52.124;6.018;2023-04-25T06:13:38;5.30;99.90
47600;DHT22;33323;52.124;6.018;2023-04-25T06:16:06;5.40;99.90
47600;DHT22;33323;52.124;6.018;2023-04-25T06:18:34;5.50;99.90
47600;DHT22;33323;52.124;6.018;2023-04-25T06:21:01;5.50;99.90
47600;DHT22;33323;52.124;6.018;2023-04-25T06:23:29;5.50;99.90
47600;DHT22;33323;52.124;6.018;2023-04-25T06:26:03;5.60;99.90
47600;DHT22;33323;52.124;6.018;2023-04-25T06:28:32;5.60;99.90
47600;DHT22;33323;52.124;6.018;2023-04-25T06:30:59;5.60;99.90
47600;DHT22;33323;52.124;6.018;2023-04-25T06:33:26;5.60;99.90
47600;DHT22;33323;52.124;6.018;2023-04-25T06:35:54;5.50;99.90
47600;DHT22;33323;52.124;6.018;2023-04-25T06:38:25;5.50;99.90
47600;DHT22;33323;52.124;6.018;2023-04-25T06:40:55;5.50;99.90
47600;DHT22;33323;52.124;6.018;2023-04-25T06:43:22;5.60;99.90
47600;DHT22;33323;52.124;6.018;2023-04-25T06:45:52;5.70;99.90
47600;DHT22;33323;52.124;6.018;2023-04-25T06:48:21;5.80;99.90
47600;DHT22;33323;52.124;6.018;2023-04-25T06:50:51;5.90;99.90
47600;DHT22;33323;52.124;6.018;2023-04-25T06:53:19;6.10;99.90
47600;DHT22;33323;52.124;6.018;2023-04-25T06:55:51;6.30;99.90
47600;DHT22;33323;52.124;6.018;2023-04-25T06:58:21;6.40;99.90
47600;DHT22;33323;52.124;6.018;2023-04-25T07:00:59;6.50;99.90
47600;DHT22;33323;52.124;6.018;2023-04-25T07:03:27;6.60;99.90
47600;DHT22;33323;52.124;6.018;2023-04-25T07:05:58;6.70;99.90
47600;DHT22;33323;52.124;6.018;2023-04-25T07:08:28;6.70;99.90
47600;DHT22;33323;52.124;6.018;2023-04-25T07:10:57;6.60;99.90
47600;DHT22;33323;52.124;6.018;2023-04-25T07:13:24;6.60;99.90
47600;DHT22;33323;52.124;6.018;2023-04-25T07:15:52;6.70;99.90
47600;DHT22;33323;52.124;6.018;2023-04-25T07:18:22;6.90;99.90
47600;DHT22;33323;52.124;6.018;2023-04-25T07:20:50;7.10;99.90
47600;DHT22;33323;52.124;6.018;2023-04-25T07:23:18;7.40;99.90
47600;DHT22;33323;52.124;6.018;2023-04-25T07:25:46;7.60;99.90
47600;DHT22;33323;52.124;6.018;2023-04-25T07:28:19;7.70;99.90
47600;DHT22;33323;52.124;6.018;2023-04-25T07:30:47;7.90;99.90
47600;DHT22;33323;52.124;6.018;2023-04-25T07:33:14;8.10;99.90
47600;DHT22;33323;52.124;6.018;2023-04-25T07:35:41;8.30;99.90
47600;DHT22;33323;52.124;6.018;2023-04-25T07:38:09;8.40;99.90
47600;DHT22;33323;52.124;6.018;2023-04-25T07:40:37;8.60;99.90
47600;DHT22;33323;52.124;6.018;2023-04-25T07:43:07;8.90;99.90
47600;DHT22;33323;52.124;6.018;2023-04-25T07:45:43;9.10;99.90
47600;DHT22;33323;52.124;6.018;2023-04-25T07:48:11;9.10;99.90
47600;DHT22;33323;52.124;6.018;2023-04-25T07:50:39;8.90;99.90
47600;DHT22;33323;52.124;6.018;2023-04-25T07:53:07;9.10;99.90
47600;DHT22;33323;52.124;6.018;2023-04-25T07:55:43;9.10;99.90
47600;DHT22;33323;52.124;6.018;2023-04-25T07:58:14;9.20;99.90
47600;DHT22;33323;52.124;6.018;2023-04-25T08:00:44;9.50;99.90
47600;DHT22;33323;52.124;6.018;2023-04-25T08:03:40;9.50;99.90
47600;DHT22;33323;52.124;6.018;2023-04-25T08:06:14;9.20;99.90
47600;DHT22;33323;52.124;6.018;2023-04-25T08:08:51;8.90;99.90
47600;DHT22;33323;52.124;6.018;2023-04-25T08:11:22;8.80;99.90
47600;DHT22;33323;52.124;6.018;2023-04-25T08:13:49;8.70;99.90
47600;DHT22;33323;52.124;6.018;2023-04-25T08:16:17;8.40;99.90
47600;DHT22;33323;52.124;6.018;2023-04-25T08:18:44;7.50;99.90
47600;DHT22;33323;52.124;6.018;2023-04-25T08:21:11;6.50;99.90
47600;DHT22;33323;52.124;6.018;2023-04-25T08:23:39;6.10;99.90
47600;DHT22;33323;52.124;6.018;2023-04-25T08:26:19;5.90;99.90
47600;DHT22;33323;52.124;6.018;2023-04-25T08:28:49;5.90;99.90
47600;DHT22;33323;52.124;6.018;2023-04-25T08:31:16;6.00;99.90
47600;DHT22;33323;52.124;6.018;2023-04-25T08:33:53;6.20;99.90
47600;DHT22;33323;52.124;6.018;2023-04-25T08:36:32;6.40;99.90
47600;DHT22;33323;52.124;6.018;2023-04-25T08:39:17;6.60;99.90
47600;DHT22;33323;52.124;6.018;2023-04-25T08:42:06;7.10;99.90
47600;DHT22;33323;52.124;6.018;2023-04-25T08:44:37;7.70;99.90
47600;DHT22;33323;52.124;6.018;2023-04-25T08:47:05;8.20;99.90
47600;DHT22;33323;52.124;6.018;2023-04-25T08:49:42;8.30;99.90
47600;DHT22;33323;52.124;6.018;2023-04-25T08:52:13;8.90;99.90
47600;DHT22;33323;52.124;6.018;2023-04-25T08:54:43;8.90;99.90
47600;DHT22;33323;52.124;6.018;2023-04-25T08:57:17;8.90;99.90
47600;DHT22;33323;52.124;6.018;2023-04-25T08:59:47;9.10;99.90
47600;DHT22;33323;52.124;6.018;2023-04-25T09:02:15;9.70;99.90
47600;DHT22;33323;52.124;6.018;2023-04-25T09:04:48;9.60;99.90
47600;DHT22;33323;52.124;6.018;2023-04-25T09:07:16;9.70;99.90
47600;DHT22;33323;52.124;6.018;2023-04-25T09:09:47;9.60;99.90
47600;DHT22;33323;52.124;6.018;2023-04-25T09:12:20;9.80;99.90
47600;DHT22;33323;52.124;6.018;2023-04-25T09:15:03;9.70;99.90
47600;DHT22;33323;52.124;6.018;2023-04-25T09:17:56;9.70;99.90
47600;DHT22;33323;52.124;6.018;2023-04-25T09:20:29;9.90;99.90
47600;DHT22;33323;52.124;6.018;2023-04-25T09:23:02;10.60;99.90
47600;DHT22;33323;52.124;6.018;2023-04-25T09:25:36;11.20;99.90
47600;DHT22;33323;52.124;6.018;2023-04-25T09:28:08;11.60;99.90
47600;DHT22;33323;52.124;6.018;2023-04-25T09:30:36;11.40;99.90
47600;DHT22;33323;52.124;6.018;2023-04-25T09:33:11;11.20;99.90
47600;DHT22;33323;52.124;6.018;2023-04-25T09:35:44;11.30;99.90
47600;DHT22;33323;52.124;6.018;2023-04-25T09:38:45;11.70;99.90
47600;DHT22;33323;52.124;6.018;2023-04-25T09:41:24;11.90;99.90
47600;DHT22;33323;52.124;6.018;2023-04-25T09:43:57;10.40;99.90
47600;DHT22;33323;52.124;6.018;2023-04-25T09:46:36;9.50;99.90
47600;DHT22;33323;52.124;6.018;2023-04-25T09:49:07;9.10;99.90
47600;DHT22;33323;52.124;6.018;2023-04-25T09:51:57;8.80;99.90
47600;DHT22;33323;52.124;6.018;2023-04-25T09:54:30;8.90;99.90
47600;DHT22;33323;52.124;6.018;2023-04-25T09:57:23;9.50;99.90
47600;DHT22;33323;52.124;6.018;2023-04-25T09:59:54;9.80;99.90
47600;DHT22;33323;52.124;6.018;2023-04-25T10:02:26;9.70;99.90
47600;DHT22;33323;52.124;6.018;2023-04-25T10:05:00;9.70;99.90
47600;DHT22;33323;52.124;6.018;2023-04-25T10:07:37;9.80;99.90
47600;DHT22;33323;52.124;6.018;2023-04-25T10:10:10;9.80;99.90
47600;DHT22;33323;52.124;6.018;2023-04-25T10:12:39;9.70;99.90
47600;DHT22;33323;52.124;6.018;2023-04-25T10:15:09;9.90;99.90
47600;DHT22;33323;52.124;6.018;2023-04-25T10:17:37;10.20;99.90
47600;DHT22;33323;52.124;6.018;2023-04-25T10:20:06;10.70;99.90
47600;DHT22;33323;52.124;6.018;2023-04-25T10:22:47;11.00;99.90
47600;DHT22;33323;52.124;6.018;2023-04-25T10:25:15;10.50;99.90
47600;DHT22;33323;52.124;6.018;2023-04-25T10:27:42;9.60;99.90
47600;DHT22;33323;52.124;6.018;2023-04-25T10:30:13;8.50;99.90
47600;DHT22;33323;52.124;6.018;2023-04-25T10:32:42;8.10;99.90
47600;DHT22;33323;52.124;6.018;2023-04-25T10:35:24;7.90;99.90
47600;DHT22;33323;52.124;6.018;2023-04-25T10:38:22;7.50;99.90
47600;DHT22;33323;52.124;6.018;2023-04-25T10:41:19;7.30;99.90
47600;DHT22;33323;52.124;6.018;2023-04-25T10:43:48;7.40;99.90
47600;DHT22;33323;52.124;6.018;2023-04-25T10:46:21;7.60;99.90
47600;DHT22;33323;52.124;6.018;2023-04-25T10:48:57;7.80;99.90
47600;DHT22;33323;52.124;6.018;2023-04-25T10:51:33;8.30;99.90
47600;DHT22;33323;52.124;6.018;2023-04-25T10:54:19;8.60;99.90
47600;DHT22;33323;52.124;6.018;2023-04-25T10:56:51;9.00;99.90
47600;DHT22;33323;52.124;6.018;2023-04-25T10:59:20;9.30;99.90
47600;DHT22;33323;52.124;6.018;2023-04-25T11:01:52;9.50;99.90
47600;DHT22;33323;52.124;6.018;2023-04-25T11:04:29;9.70;99.90
47600;DHT22;33323;52.124;6.018;2023-04-25T11:07:10;9.90;99.90
47600;DHT22;33323;52.124;6.018;2023-04-25T11:09:45;9.90;99.90
47600;DHT22;33323;52.124;6.018;2023-04-25T11:12:12;10.20;99.90
47600;DHT22;33323;52.124;6.018;2023-04-25T11:14:40;10.50;99.90
47600;DHT22;33323;52.124;6.018;2023-04-25T11:17:08;10.90;99.90
47600;DHT22;33323;52.124;6.018;2023-04-25T11:19:37;11.40;99.90
47600;DHT22;33323;52.124;6.018;2023-04-25T11:22:04;11.60;99.90
47600;DHT22;33323;52.124;6.018;2023-04-25T11:24:34;11.50;99.90
47600;DHT22;33323;52.124;6.018;2023-04-25T11:27:04;11.60;99.90
47600;DHT22;33323;52.124;6.018;2023-04-25T11:29:34;10.90;99.90
47600;DHT22;33323;52.124;6.018;2023-04-25T11:32:02;10.80;99.90
47600;DHT22;33323;52.124;6.018;2023-04-25T11:34:30;11.40;99.90
47600;DHT22;33323;52.124;6.018;2023-04-25T11:37:00;12.20;99.90
47600;DHT22;33323;52.124;6.018;2023-04-25T11:39:29;12.80;99.90
47600;DHT22;33323;52.124;6.018;2023-04-25T11:41:56;13.10;99.90
47600;DHT22;33323;52.124;6.018;2023-04-25T11:44:23;13.20;99.90
47600;DHT22;33323;52.124;6.018;2023-04-25T11:46:51;13.30;99.90
47600;DHT22;33323;52.124;6.018;2023-04-25T11:49:18;12.70;99.90
47600;DHT22;33323;52.124;6.018;2023-04-25T11:51:47;12.90;99.90
47600;DHT22;33323;52.124;6.018;2023-04-25T11:54:15;12.70;99.90
47600;DHT22;33323;52.124;6.018;2023-04-25T11:56:43;12.90;99.90
47600;DHT22;33323;52.124;6.018;2023-04-25T11:59:12;12.90;99.90
47600;DHT22;33323;52.124;6.018;2023-04-25T12:01:41;12.90;99.90
47600;DHT22;33323;52.124;6.018;2023-04-25T12:04:20;12.90;99.90
47600;DHT22;33323;52.124;6.018;2023-04-25T12:06:51;13.00;99.90
47600;DHT22;33323;52.124;6.018;2023-04-25T12:09:27;12.60;99.90
47600;DHT22;33323;52.124;6.018;2023-04-25T12:11:59;11.80;99.90
47600;DHT22;33323;52.124;6.018;2023-04-25T12:14:32;11.40;99.90
47600;DHT22;33323;52.124;6.018;2023-04-25T12:17:01;11.10;99.90
47600;DHT22;33323;52.124;6.018;2023-04-25T12:19:35;10.80;99.90
47600;DHT22;33323;52.124;6.018;2023-04-25T12:22:10;10.90;99.90
47600;DHT22;33323;52.124;6.018;2023-04-25T12:24:46;11.60;99.90
47600;DHT22;33323;52.124;6.018;2023-04-25T12:27:16;11.80;99.90
47600;DHT22;33323;52.124;6.018;2023-04-25T12:29:56;11.00;99.90
47600;DHT22;33323;52.124;6.018;2023-04-25T12:32:23;10.70;99.90
47600;DHT22;33323;52.124;6.018;2023-04-25T12:34:52;10.60;99.90
47600;DHT22;33323;52.124;6.018;2023-04-25T12:37:19;10.50;99.90
47600;DHT22;33323;52.124;6.018;2023-04-25T12:39:46;11.00;99.90
47600;DHT22;33323;52.124;6.018;2023-04-25T12:42:13;11.60;99.90
47600;DHT22;33323;52.124;6.018;2023-04-25T12:44:41;11.80;99.90
47600;DHT22;33323;52.124;6.018;2023-04-25T12:47:08;11.90;99.90
47600;DHT22;33323;52.124;6.018;2023-04-25T12:49:35;11.80;99.90
47600;DHT22;33323;52.124;6.018;2023-04-25T12:52:03;11.90;99.90
47600;DHT22;33323;52.124;6.018;2023-04-25T12:54:30;11.60;99.90
47600;DHT22;33323;52.124;6.018;2023-04-25T12:56:57;11.50;99.90
47600;DHT22;33323;52.124;6.018;2023-04-25T12:59:25;11.60;99.90
47600;DHT22;33323;52.124;6.018;2023-04-25T13:01:52;11.60;99.90
47600;DHT22;33323;52.124;6.018;2023-04-25T13:04:19;11.80;99.90
47600;DHT22;33323;52.124;6.018;2023-04-25T13:06:48;12.10;99.90
47600;DHT22;33323;52.124;6.018;2023-04-25T13:09:15;12.50;99.90
47600;DHT22;33323;52.124;6.018;2023-04-25T13:11:42;11.90;99.90
47600;DHT22;33323;52.124;6.018;2023-04-25T13:14:09;11.90;99.90
47600;DHT22;33323;52.124;6.018;2023-04-25T13:16:37;12.20;99.90
47600;DHT22;33323;52.124;6.018;2023-04-25T13:19:04;11.50;99.90
47600;DHT22;33323;52.124;6.018;2023-04-25T13:21:32;11.00;99.90
47600;DHT22;33323;52.124;6.018;2023-04-25T13:23:59;10.80;99.90
47600;DHT22;33323;52.124;6.018;2023-04-25T13:26:26;10.70;99.90
47600;DHT22;33323;52.124;6.018;2023-04-25T13:28:53;10.50;99.90
47600;DHT22;33323;52.124;6.018;2023-04-25T13:31:21;10.30;99.90
47600;DHT22;33323;52.124;6.018;2023-04-25T13:33:48;10.40;99.90
47600;DHT22;33323;52.124;6.018;2023-04-25T13:36:16;10.40;99.90
47600;DHT22;33323;52.124;6.018;2023-04-25T13:38:43;11.00;99.90
47600;DHT22;33323;52.124;6.018;2023-04-25T13:41:12;11.30;99.90
47600;DHT22;33323;52.124;6.018;2023-04-25T13:43:45;11.60;99.90
47600;DHT22;33323;52.124;6.018;2023-04-25T13:46:14;11.20;99.90
47600;DHT22;33323;52.124;6.018;2023-04-25T13:49:03;10.50;99.90
47600;DHT22;33323;52.124;6.018;2023-04-25T13:51:38;10.10;99.90
47600;DHT22;33323;52.124;6.018;2023-04-25T13:54:06;10.00;99.90
47600;DHT22;33323;52.124;6.018;2023-04-25T13:56:33;9.90;99.90
47600;DHT22;33323;52.124;6.018;2023-04-25T13:59:00;9.90;99.90
47600;DHT22;33323;52.124;6.018;2023-04-25T14:01:28;9.80;99.90
47600;DHT22;33323;52.124;6.018;2023-04-25T14:03:57;9.90;99.90
47600;DHT22;33323;52.124;6.018;2023-04-25T14:06:24;10.20;99.90
47600;DHT22;33323;52.124;6.018;2023-04-25T14:08:53;10.70;99.90
47600;DHT22;33323;52.124;6.018;2023-04-25T14:11:20;11.20;99.90
47600;DHT22;33323;52.124;6.018;2023-04-25T14:13:47;11.40;99.90
47600;DHT22;33323;52.124;6.018;2023-04-25T14:16:16;11.60;99.90
47600;DHT22;33323;52.124;6.018;2023-04-25T14:18:44;11.80;99.90
47600;DHT22;33323;52.124;6.018;2023-04-25T14:21:11;11.70;99.90
47600;DHT22;33323;52.124;6.018;2023-04-25T14:23:38;11.40;99.90
47600;DHT22;33323;52.124;6.018;2023-04-25T14:26:05;11.20;99.90
47600;DHT22;33323;52.124;6.018;2023-04-25T14:28:32;11.00;99.90
47600;DHT22;33323;52.124;6.018;2023-04-25T14:30:59;11.20;99.90
47600;DHT22;33323;52.124;6.018;2023-04-25T14:33:27;11.50;99.90
47600;DHT22;33323;52.124;6.018;2023-04-25T14:35:54;11.60;99.90
47600;DHT22;33323;52.124;6.018;2023-04-25T14:38:21;11.30;99.90
47600;DHT22;33323;52.124;6.018;2023-04-25T14:40:50;11.00;99.90
47600;DHT22;33323;52.124;6.018;2023-04-25T14:43:17;10.80;99.90
47600;DHT22;33323;52.124;6.018;2023-04-25T14:45:44;10.20;99.90
47600;DHT22;33323;52.124;6.018;2023-04-25T14:48:12;9.70;99.90
47600;DHT22;33323;52.124;6.018;2023-04-25T14:50:39;9.40;99.90
47600;DHT22;33323;52.124;6.018;2023-04-25T14:53:06;9.40;99.90
47600;DHT22;33323;52.124;6.018;2023-04-25T14:55:33;9.40;99.90
47600;DHT22;33323;52.124;6.018;2023-04-25T14:58:01;9.50;99.90
47600;DHT22;33323;52.124;6.018;2023-04-25T15:00:29;10.10;99.90
47600;DHT22;33323;52.124;6.018;2023-04-25T15:02:58;10.70;99.90
47600;DHT22;33323;52.124;6.018;2023-04-25T15:05:26;11.00;99.90
47600;DHT22;33323;52.124;6.018;2023-04-25T15:07:53;10.60;99.90
47600;DHT22;33323;52.124;6.018;2023-04-25T15:10:22;10.40;99.90
47600;DHT22;33323;52.124;6.018;2023-04-25T15:12:49;10.80;99.90
47600;DHT22;33323;52.124;6.018;2023-04-25T15:15:17;10.70;99.90
47600;DHT22;33323;52.124;6.018;2023-04-25T15:17:52;10.60;99.90
47600;DHT22;33323;52.124;6.018;2023-04-25T15:20:25;10.20;99.90
47600;DHT22;33323;52.124;6.018;2023-04-25T15:22:53;10.20;99.90
47600;DHT22;33323;52.124;6.018;2023-04-25T15:25:20;10.30;99.90
47600;DHT22;33323;52.124;6.018;2023-04-25T15:27:47;10.30;99.90
47600;DHT22;33323;52.124;6.018;2023-04-25T15:30:16;10.30;99.90
47600;DHT22;33323;52.124;6.018;2023-04-25T15:32:44;10.40;99.90
47600;DHT22;33323;52.124;6.018;2023-04-25T15:35:13;10.40;99.90
47600;DHT22;33323;52.124;6.018;2023-04-25T15:37:41;10.70;99.90
47600;DHT22;33323;52.124;6.018;2023-04-25T15:40:11;10.60;99.90
47600;DHT22;33323;52.124;6.018;2023-04-25T15:42:42;10.70;99.90
47600;DHT22;33323;52.124;6.018;2023-04-25T15:45:14;10.90;99.90
47600;DHT22;33323;52.124;6.018;2023-04-25T15:47:44;11.20;99.90
47600;DHT22;33323;52.124;6.018;2023-04-25T15:50:12;11.20;99.90
47600;DHT22;33323;52.124;6.018;2023-04-25T15:52:40;11.50;99.90
47600;DHT22;33323;52.124;6.018;2023-04-25T15:55:08;11.70;99.90
47600;DHT22;33323;52.124;6.018;2023-04-25T15:57:36;11.50;99.90
47600;DHT22;33323;52.124;6.018;2023-04-25T16:00:05;11.00;99.90
47600;DHT22;33323;52.124;6.018;2023-04-25T16:02:39;10.50;99.90
47600;DHT22;33323;52.124;6.018;2023-04-25T16:05:07;10.30;99.90